Fecha, hora, temperatura, viento dirección y velocidad, humedad y presión.

  • 16-01-2019 17:00:00 | 11.30°C | Noroeste |18.00 km/h | 84.00% | 1000.50 hPa
  • 16-01-2019 16:00:00 | 11.50°C | Noroeste |18.00 km/h | 86.00% | 1000.30 hPa
  • 16-01-2019 15:00:00 | 12.40°C | Oeste |15.00 km/h | 78.00% | 1000.20 hPa
  • 16-01-2019 14:00:00 | 12.20°C | Oeste |6.00 km/h | 68.00% | 1000.40 hPa
  • 16-01-2019 13:00:00 | 10.90°C | Oeste |9.00 km/h | 72.00% | 1000.90 hPa
  • 16-01-2019 12:00:00 | 9.50°C | Sudoeste |8.00 km/h | 73.00% | 1001.30 hPa
  • 16-01-2019 11:00:00 | 7.70°C | Sudoeste |13.00 km/h | 76.00% | 1001.30 hPa
  • 16-01-2019 10:00:00 | 5.70°C | Sudoeste |18.00 km/h | 80.00% | 1001.00 hPa
  • 16-01-2019 09:00:00 | 5.40°C | Sudoeste |18.00 km/h | 80.00% | 1000.80 hPa
  • 16-01-2019 08:00:00 | 4.40°C | Sudoeste |18.00 km/h | 84.00% | 1001.00 hPa
  • 16-01-2019 07:00:00 | 4.60°C | Sudoeste |13.00 km/h | 90.00% | 1000.70 hPa
  • 16-01-2019 06:00:00 | 5.30°C | Sur |11.00 km/h | 86.00% | 1001.00 hPa
  • 16-01-2019 05:00:00 | 3.90°C | Sudoeste |10.00 km/h | 92.00% | 1001.20 hPa
  • 16-01-2019 04:00:00 | 4.10°C | Sudoeste |7.00 km/h | 89.00% | 1001.40 hPa
  • 16-01-2019 03:00:00 | 4.70°C | Sudoeste |10.00 km/h | 91.00% | 1001.50 hPa
  • 16-01-2019 02:00:00 | 5.30°C | Sudoeste |6.00 km/h | 88.00% | 1001.90 hPa
  • 16-01-2019 01:00:00 | 5.50°C | Sudoeste |9.00 km/h | 87.00% | 1002.40 hPa
  • 16-01-2019 00:00:00 | 5.90°C | Sudoeste |8.00 km/h | 88.00% | 1002.80 hPa
  • 15-01-2019 23:00:00 | 6.50°C | Sudoeste |8.00 km/h | 87.00% | 1003.00 hPa
  • 15-01-2019 22:00:00 | 6.80°C | Sudoeste |9.00 km/h | 87.00% | 1003.00 hPa
  • 15-01-2019 21:00:00 | 6.20°C | Sur |8.00 km/h | 94.00% | 1003.10 hPa
  • 15-01-2019 20:00:00 | 5.30°C | Sudeste |13.00 km/h | 94.00% | 1003.30 hPa
  • 15-01-2019 19:00:00 | 6.20°C | Sudeste |13.00 km/h | 89.00% | 1003.40 hPa
  • 15-01-2019 18:00:00 | 9.40°C | Este |14.00 km/h | 82.00% | 1003.40 hPa
    • diseño web asturias Información sobre el estado de las mareas, altura de la marejada, temperatura del agua y otros datos de Gijón en Asturias.

      Surf Gijón